Time;durP1;ratioP1;P1;durP2;ratioP2;P2;SDS_P1;SDS_P2;PMS_P1;PMS_P2;Temp;Humidity;BMP_temperature;BMP_pressure;BME280_temperature;BME280_humidity;BME280_pressure;Samples;Min_cycle;Max_cycle;Signal;HPM_P1;HPM_P2
2022/03/24 00:01:46;;;;;;;14.82;10.82;;;;;;;;;;5051761;28;20083;-63
2022/03/24 00:04:13;;;;;;;17.65;10.77;;;;;;;;;;5051471;28;20564;-63
2022/03/24 00:06:40;;;;;;;17.05;11.45;;;;;;;;;;5051548;28;20049;-64
2022/03/24 00:09:07;;;;;;;15.73;11.23;;;;;;;;;;5051360;28;20115;-63
2022/03/24 00:11:34;;;;;;;17.02;10.70;;;;;;;;;;5051317;28;20083;-63
2022/03/24 00:14:01;;;;;;;17.42;10.38;;;;;;;;;;5049928;28;20060;-63
2022/03/24 00:16:27;;;;;;;14.93;10.65;;;;;;;;;;5050404;28;20095;-63
2022/03/24 00:18:54;;;;;;;18.95;11.40;;;;;;;;;;5050139;28;20133;-64
2022/03/24 00:21:21;;;;;;;18.48;11.60;;;;;;;;;;5051273;28;20053;-63
2022/03/24 00:23:49;;;;;;;16.80;11.00;;;;;;;;;;5051304;28;20146;-64
2022/03/24 00:26:16;;;;;;;17.48;11.32;;;;;;;;;;5051171;28;20073;-64
2022/03/24 00:28:43;;;;;;;15.75;11.10;;;;;;;;;;5051407;28;20102;-64
2022/03/24 00:31:10;;;;;;;16.35;12.13;;;;;;;;;;5050957;28;20466;-63
2022/03/24 00:33:38;;;;;;;17.80;11.95;;;;;;;;;;5052364;28;20072;-63
2022/03/24 00:36:05;;;;;;;18.35;12.05;;;;;;;;;;5055062;28;20299;-63
2022/03/24 00:38:32;;;;;;;19.23;11.80;;;;;;;;;;5055049;28;20055;-64
2022/03/24 00:40:59;;;;;;;17.58;12.48;;;;;;;;;;5054650;28;20099;-63
2022/03/24 00:43:25;;;;;;;18.35;11.85;;;;;;;;;;5054948;28;20522;-63
2022/03/24 00:45:52;;;;;;;16.40;12.32;;;;;;;;;;5055149;28;20048;-63
2022/03/24 00:48:19;;;;;;;16.15;11.05;;;;;;;;;;5054865;28;20544;-64
2022/03/24 00:50:45;;;;;;;15.50;11.13;;;;;;;;;;5054609;28;20492;-63
2022/03/24 00:53:12;;;;;;;21.05;12.27;;;;;;;;;;5054703;28;20102;-64
2022/03/24 00:55:39;;;;;;;17.38;11.43;;;;;;;;;;5053467;28;20079;-64
2022/03/24 00:58:06;;;;;;;16.70;11.60;;;;;;;;;;5054723;28;20079;-63
2022/03/24 01:00:33;;;;;;;20.67;12.15;;;;;;;;;;5053373;28;20083;-64
2022/03/24 01:02:59;;;;;;;17.52;11.73;;;;;;;;;;5054746;28;20148;-63
2022/03/24 01:05:29;;;;;;;19.35;12.13;;;;;;;;;;5054761;28;20103;-64
2022/03/24 01:07:56;;;;;;;20.27;12.50;;;;;;;;;;5054280;28;20075;-64
2022/03/24 01:10:22;;;;;;;14.95;11.35;;;;;;;;;;5054369;28;20053;-64
2022/03/24 01:12:49;;;;;;;18.60;12.35;;;;;;;;;;5054299;28;20094;-64
2022/03/24 01:15:18;;;;;;;18.77;11.65;;;;;;;;;;5053197;28;20057;-64
2022/03/24 01:17:45;;;;;;;16.77;12.13;;;;;;;;;;5053219;28;20099;-64
2022/03/24 01:20:12;;;;;;;23.10;12.48;;;;;;;;;;5054273;28;20053;-63
2022/03/24 01:22:39;;;;;;;18.45;11.88;;;;;;;;;;5052867;28;20549;-63
2022/03/24 01:25:06;;;;;;;23.92;12.32;;;;;;;;;;5054412;28;20368;-64
2022/03/24 01:27:34;;;;;;;21.42;12.27;;;;;;;;;;5052942;28;20549;-64
2022/03/24 01:30:01;;;;;;;18.50;12.07;;;;;;;;;;5054181;28;20057;-64
2022/03/24 01:32:28;;;;;;;19.27;12.02;;;;;;;;;;5054000;28;20052;-64
2022/03/24 01:34:55;;;;;;;17.92;12.45;;;;;;;;;;5036270;28;20565;-64
2022/03/24 01:37:25;;;;;;;20.77;12.57;;;;;;;;;;5036336;28;20408;-63
2022/03/24 01:39:52;;;;;;;19.25;11.93;;;;;;;;;;5054269;28;20119;-64
2022/03/24 01:42:19;;;;;;;20.88;12.63;;;;;;;;;;5053929;28;20049;-64
2022/03/24 01:44:47;;;;;;;16.33;11.93;;;;;;;;;;5051791;28;20110;-63
2022/03/24 01:47:15;;;;;;;18.92;12.18;;;;;;;;;;5052630;28;20051;-64
2022/03/24 01:49:47;;;;;;;19.20;12.13;;;;;;;;;;5053626;28;20049;-64
2022/03/24 01:52:15;;;;;;;18.73;12.38;;;;;;;;;;5053719;28;20060;-64
2022/03/24 01:54:48;;;;;;;17.80;12.18;;;;;;;;;;5053839;28;20049;-64
2022/03/24 01:57:16;;;;;;;18.65;11.50;;;;;;;;;;5053806;28;20160;-63
2022/03/24 01:59:42;;;;;;;19.90;12.27;;;;;;;;;;5053534;28;20416;-64
2022/03/24 02:02:10;;;;;;;19.35;12.57;;;;;;;;;;5053323;28;20466;-64
2022/03/24 02:04:38;;;;;;;22.42;12.27;;;;;;;;;;5052450;28;20392;-64
2022/03/24 02:07:05;;;;;;;20.60;13.02;;;;;;;;;;5052167;28;20047;-64
2022/03/24 02:09:33;;;;;;;18.02;12.20;;;;;;;;;;5036122;28;20495;-64
2022/03/24 02:12:04;;;;;;;18.67;12.55;;;;;;;;;;5052133;28;20464;-64
2022/03/24 02:14:31;;;;;;;19.50;11.90;;;;;;;;;;5052307;28;20467;-64
2022/03/24 02:16:57;;;;;;;20.48;13.32;;;;;;;;;;5053051;28;20052;-64
2022/03/24 02:19:25;;;;;;;19.50;13.07;;;;;;;;;;5053321;28;20466;-63
2022/03/24 02:21:54;;;;;;;20.10;12.82;;;;;;;;;;5052893;28;20053;-63
2022/03/24 02:24:23;;;;;;;18.35;12.63;;;;;;;;;;5053051;28;20044;-63
2022/03/24 02:26:50;;;;;;;23.67;12.93;;;;;;;;;;5035597;28;20463;-63
2022/03/24 02:29:17;;;;;;;20.08;13.05;;;;;;;;;;5052842;28;20053;-63
2022/03/24 02:31:46;;;;;;;20.30;13.18;;;;;;;;;;5051882;28;20053;-63
2022/03/24 02:37:11;;;;;;;21.55;13.27;;;;;;;;;;5053047;28;20466;-63
2022/03/24 02:39:39;;;;;;;16.50;11.82;;;;;;;;;;5034995;28;20055;-64
2022/03/24 02:42:07;;;;;;;20.63;13.05;;;;;;;;;;5051632;28;20102;-63
2022/03/24 02:44:34;;;;;;;17.67;12.80;;;;;;;;;;5052838;28;20078;-64
2022/03/24 02:47:02;;;;;;;20.27;12.93;;;;;;;;;;5052740;28;20462;-64
2022/03/24 02:49:30;;;;;;;19.15;13.80;;;;;;;;;;5051270;28;20106;-63
2022/03/24 02:51:59;;;;;;;18.88;12.15;;;;;;;;;;5051412;28;20045;-63
2022/03/24 02:54:27;;;;;;;20.48;13.07;;;;;;;;;;5052466;28;20049;-64
2022/03/24 02:56:53;;;;;;;19.40;13.40;;;;;;;;;;5052451;28;20103;-64
2022/03/24 02:59:20;;;;;;;16.20;11.95;;;;;;;;;;5052341;28;20079;-63
2022/03/24 03:01:59;;;;;;;19.50;12.15;;;;;;;;;;5052475;28;20053;-64
2022/03/24 03:04:28;;;;;;;17.85;12.82;;;;;;;;;;5052332;28;20114;-64
2022/03/24 03:06:54;;;;;;;18.98;12.40;;;;;;;;;;5050918;28;20044;-64
2022/03/24 03:09:22;;;;;;;19.00;12.90;;;;;;;;;;5052523;28;20052;-63
2022/03/24 03:11:49;;;;;;;19.05;13.73;;;;;;;;;;5050913;28;20111;-63
2022/03/24 03:14:17;;;;;;;17.40;12.00;;;;;;;;;;5052411;28;20052;-64
2022/03/24 03:20:30;;;;;;;17.85;12.00;;;;;;;;;;5052196;28;20150;-64
2022/03/24 03:22:57;;;;;;;17.67;12.40;;;;;;;;;;5051972;28;20049;-64
2022/03/24 03:25:24;;;;;;;20.23;13.57;;;;;;;;;;5050824;28;20094;-64
2022/03/24 03:27:50;;;;;;;19.88;13.93;;;;;;;;;;5051672;28;20045;-63
2022/03/24 03:30:17;;;;;;;19.75;13.43;;;;;;;;;;5051864;28;20077;-64
2022/03/24 03:32:44;;;;;;;18.98;12.73;;;;;;;;;;5051429;28;20049;-64
2022/03/24 03:35:10;;;;;;;20.85;12.88;;;;;;;;;;5051855;28;20053;-64
2022/03/24 03:37:38;;;;;;;17.20;12.40;;;;;;;;;;5051689;28;20102;-63
2022/03/24 03:40:05;;;;;;;18.48;12.70;;;;;;;;;;5050574;28;20048;-64
2022/03/24 03:42:32;;;;;;;17.77;12.40;;;;;;;;;;5051325;28;20107;-64
2022/03/24 03:44:58;;;;;;;18.15;13.20;;;;;;;;;;5051764;28;20621;-64
2022/03/24 03:47:25;;;;;;;19.65;13.35;;;;;;;;;;5051497;28;20045;-63
2022/03/24 03:49:55;;;;;;;20.33;13.05;;;;;;;;;;5051758;28;20049;-63
2022/03/24 03:52:28;;;;;;;19.42;13.02;;;;;;;;;;5051407;28;20124;-63
2022/03/24 03:54:55;;;;;;;17.85;13.00;;;;;;;;;;5051584;28;20049;-63
2022/03/24 04:01:05;;;;;;;20.67;12.90;;;;;;;;;;5074590;22;20079;-66
2022/03/24 04:03:33;;;;;;;19.02;13.02;;;;;;;;;;5051667;28;20422;-66
2022/03/24 04:06:06;;;;;;;19.55;13.90;;;;;;;;;;5051783;28;20048;-66
2022/03/24 04:08:33;;;;;;;17.75;13.27;;;;;;;;;;5053943;28;20099;-66
2022/03/24 04:11:00;;;;;;;20.98;13.52;;;;;;;;;;5055624;28;20056;-66
2022/03/24 04:13:28;;;;;;;21.33;13.65;;;;;;;;;;5054478;28;20053;-66
2022/03/24 04:15:55;;;;;;;19.85;13.52;;;;;;;;;;5055845;28;20103;-66
2022/03/24 04:18:25;;;;;;;23.45;15.13;;;;;;;;;;5055777;28;20047;-66
2022/03/24 04:20:51;;;;;;;22.80;14.25;;;;;;;;;;5055413;28;20049;-66
2022/03/24 04:23:18;;;;;;;17.15;12.38;;;;;;;;;;5055474;28;20049;-66
2022/03/24 04:25:45;;;;;;;21.25;13.10;;;;;;;;;;5055515;28;20466;-66
2022/03/24 04:28:12;;;;;;;18.83;13.02;;;;;;;;;;5055273;28;20056;-66
2022/03/24 04:30:38;;;;;;;21.75;14.27;;;;;;;;;;5055397;28;20124;-66
2022/03/24 04:33:05;;;;;;;28.50;13.05;;;;;;;;;;5055271;28;20455;-66
2022/03/24 04:35:32;;;;;;;18.95;13.75;;;;;;;;;;5055384;28;20119;-66
2022/03/24 04:41:41;;;;;;;17.88;12.38;;;;;;;;;;5054908;28;20094;-66
2022/03/24 04:44:07;;;;;;;19.88;13.63;;;;;;;;;;5055310;28;20095;-66
2022/03/24 04:46:34;;;;;;;20.42;13.07;;;;;;;;;;5054901;28;20103;-66
2022/03/24 04:49:34;;;;;;;23.10;14.50;;;;;;;;;;5055094;28;20476;-66
2022/03/24 04:52:03;;;;;;;20.58;13.95;;;;;;;;;;5054557;28;20088;-66
2022/03/24 04:54:29;;;;;;;21.13;14.32;;;;;;;;;;5054858;28;20045;-66
2022/03/24 04:56:57;;;;;;;18.35;13.80;;;;;;;;;;5054772;28;20111;-66
2022/03/24 04:59:23;;;;;;;20.15;13.38;;;;;;;;;;5054402;28;20102;-66
2022/03/24 05:02:36;;;;;;;22.40;14.20;;;;;;;;;;5054741;28;20049;-66
2022/03/24 05:05:55;;;;;;;20.48;13.68;;;;;;;;;;5055133;28;20101;-66
2022/03/24 05:08:22;;;;;;;21.05;14.02;;;;;;;;;;5054581;28;20053;-66
2022/03/24 05:10:49;;;;;;;22.33;13.88;;;;;;;;;;5057915;28;20083;-66
2022/03/24 05:13:19;;;;;;;21.00;14.27;;;;;;;;;;5044080;28;20109;-66
2022/03/24 05:15:46;;;;;;;23.73;14.77;;;;;;;;;;5065128;28;20117;-66
2022/03/24 05:18:13;;;;;;;21.38;13.98;;;;;;;;;;5062414;28;20465;-66
2022/03/24 05:20:40;;;;;;;19.83;14.05;;;;;;;;;;5062837;28;20049;-66
2022/03/24 05:23:12;;;;;;;19.13;13.82;;;;;;;;;;5061213;28;20048;-66
2022/03/24 05:26:20;;;;;;;18.90;13.45;;;;;;;;;;5064030;28;20045;-68
2022/03/24 05:28:50;;;;;;;24.33;14.45;;;;;;;;;;5062514;28;20051;-68
2022/03/24 05:31:18;;;;;;;25.17;14.98;;;;;;;;;;5062834;28;20075;-66
2022/03/24 05:33:46;;;;;;;19.77;14.48;;;;;;;;;;5062635;28;20079;-66
2022/03/24 05:36:13;;;;;;;20.83;13.63;;;;;;;;;;5045559;28;20048;-66
2022/03/24 05:38:40;;;;;;;18.75;13.60;;;;;;;;;;5047402;28;20051;-66
2022/03/24 05:41:08;;;;;;;22.40;13.68;;;;;;;;;;5062655;28;20053;-66
2022/03/24 05:43:35;;;;;;;21.08;14.10;;;;;;;;;;5062666;28;20076;-66
2022/03/24 05:46:03;;;;;;;23.23;14.93;;;;;;;;;;5063883;28;20055;-66
2022/03/24 05:48:32;;;;;;;23.17;14.48;;;;;;;;;;5062680;28;20041;-66
2022/03/24 05:51:00;;;;;;;21.10;13.07;;;;;;;;;;5060493;28;20051;-66
2022/03/24 05:53:30;;;;;;;21.75;14.25;;;;;;;;;;5064860;28;20056;-67
2022/03/24 05:56:00;;;;;;;21.70;14.35;;;;;;;;;;5048527;28;20418;-67
2022/03/24 05:58:30;;;;;;;20.77;14.27;;;;;;;;;;5049075;28;20064;-67
2022/03/24 06:00:57;;;;;;;21.63;14.85;;;;;;;;;;5065379;28;20049;-67
2022/03/24 06:03:25;;;;;;;19.50;14.20;;;;;;;;;;5063988;28;20049;-67
2022/03/24 06:05:53;;;;;;;22.55;15.63;;;;;;;;;;5064608;28;20049;-67
2022/03/24 06:08:20;;;;;;;19.15;13.65;;;;;;;;;;5030654;28;20052;-66
2022/03/24 06:10:48;;;;;;;19.75;13.85;;;;;;;;;;5044769;28;20049;-67
2022/03/24 06:13:15;;;;;;;18.10;13.52;;;;;;;;;;5062155;28;20053;-66
2022/03/24 06:15:42;;;;;;;19.13;13.10;;;;;;;;;;5039534;28;20079;-66
2022/03/24 06:18:09;;;;;;;25.55;14.60;;;;;;;;;;5053420;28;20045;-66
2022/03/24 06:20:36;;;;;;;21.52;14.38;;;;;;;;;;5053102;28;20094;-66
2022/03/24 06:23:02;;;;;;;21.60;12.85;;;;;;;;;;5053387;28;20052;-66
2022/03/24 06:25:29;;;;;;;21.20;14.75;;;;;;;;;;5053370;28;20049;-66
2022/03/24 06:27:56;;;;;;;20.40;13.05;;;;;;;;;;5053293;28;20045;-66
2022/03/24 06:30:22;;;;;;;25.58;15.35;;;;;;;;;;5052505;28;20091;-66
2022/03/24 06:32:50;;;;;;;21.83;12.75;;;;;;;;;;5052954;28;20052;-66
2022/03/24 06:35:16;;;;;;;19.90;13.93;;;;;;;;;;5053135;28;20056;-66
2022/03/24 06:37:44;;;;;;;21.63;13.80;;;;;;;;;;5052927;28;20053;-66
2022/03/24 06:40:12;;;;;;;20.80;14.70;;;;;;;;;;5053220;28;20076;-66
2022/03/24 06:42:39;;;;;;;19.65;13.85;;;;;;;;;;5052861;28;20095;-66
2022/03/24 06:45:07;;;;;;;22.55;14.32;;;;;;;;;;5053088;28;20053;-66
2022/03/24 06:47:34;;;;;;;22.02;14.27;;;;;;;;;;5052901;28;20083;-66
2022/03/24 06:50:00;;;;;;;23.85;14.00;;;;;;;;;;5052741;28;20110;-66
2022/03/24 06:52:27;;;;;;;19.83;13.50;;;;;;;;;;5052777;28;20061;-66
2022/03/24 06:54:54;;;;;;;21.55;14.50;;;;;;;;;;5052510;28;20052;-66
2022/03/24 06:57:21;;;;;;;24.02;15.23;;;;;;;;;;5052741;28;20111;-66
2022/03/24 06:59:47;;;;;;;24.10;14.55;;;;;;;;;;5052187;28;20048;-66
2022/03/24 07:02:15;;;;;;;24.50;14.43;;;;;;;;;;5052370;28;20048;-66
2022/03/24 07:04:42;;;;;;;23.20;14.38;;;;;;;;;;5052587;28;20106;-66
2022/03/24 07:07:08;;;;;;;22.85;14.80;;;;;;;;;;5052681;28;20095;-67
2022/03/24 07:09:37;;;;;;;22.13;14.55;;;;;;;;;;5052439;28;20049;-66
2022/03/24 07:12:04;;;;;;;23.42;15.40;;;;;;;;;;5052574;28;20052;-67
2022/03/24 07:14:31;;;;;;;23.15;15.18;;;;;;;;;;5052138;28;20122;-67
2022/03/24 07:16:58;;;;;;;21.05;14.27;;;;;;;;;;5052738;28;20107;-67
2022/03/24 07:19:25;;;;;;;24.88;14.02;;;;;;;;;;5052232;28;20252;-66
2022/03/24 07:21:51;;;;;;;20.80;13.65;;;;;;;;;;5052590;28;20045;-66
2022/03/24 07:24:22;;;;;;;22.45;14.45;;;;;;;;;;5052742;28;20392;-66
2022/03/24 07:26:49;;;;;;;23.17;14.52;;;;;;;;;;5052464;28;20118;-66
2022/03/24 07:29:15;;;;;;;20.05;14.05;;;;;;;;;;5052062;28;20048;-66
2022/03/24 07:31:42;;;;;;;24.85;14.90;;;;;;;;;;5052272;28;20053;-66
2022/03/24 07:34:09;;;;;;;21.75;14.38;;;;;;;;;;5050426;28;20051;-67
2022/03/24 07:36:41;;;;;;;26.25;14.82;;;;;;;;;;5052251;28;20055;-66
2022/03/24 07:39:07;;;;;;;23.15;14.25;;;;;;;;;;5052073;28;20090;-67
2022/03/24 07:41:34;;;;;;;24.63;14.63;;;;;;;;;;5034205;28;20091;-66
2022/03/24 07:44:01;;;;;;;23.85;14.23;;;;;;;;;;5051119;28;20466;-66
2022/03/24 07:46:27;;;;;;;27.60;16.05;;;;;;;;;;5052241;28;20057;-66
2022/03/24 07:48:54;;;;;;;23.00;15.55;;;;;;;;;;5051978;28;20110;-67
2022/03/24 07:51:21;;;;;;;24.63;15.95;;;;;;;;;;5051763;28;20053;-66
2022/03/24 07:53:47;;;;;;;23.83;15.88;;;;;;;;;;5051645;28;20107;-67
2022/03/24 07:56:19;;;;;;;27.42;15.50;;;;;;;;;;5051911;28;20049;-67
2022/03/24 07:58:46;;;;;;;24.45;15.18;;;;;;;;;;5050401;28;20052;-67
2022/03/24 08:01:13;;;;;;;24.55;15.68;;;;;;;;;;5051691;28;20045;-66
2022/03/24 08:03:40;;;;;;;22.77;15.05;;;;;;;;;;5052027;28;20049;-67
2022/03/24 08:06:06;;;;;;;29.25;15.45;;;;;;;;;;5052012;28;20079;-67
2022/03/24 08:08:33;;;;;;;26.48;16.58;;;;;;;;;;5051600;28;20110;-67
2022/03/24 08:11:00;;;;;;;28.73;15.23;;;;;;;;;;5051185;28;20049;-66
2022/03/24 08:13:26;;;;;;;28.92;17.40;;;;;;;;;;5051704;28;20098;-66
2022/03/24 08:15:56;;;;;;;26.88;16.05;;;;;;;;;;5051659;28;20474;-67
2022/03/24 08:18:23;;;;;;;26.98;17.48;;;;;;;;;;5051607;28;20044;-66
2022/03/24 08:20:51;;;;;;;30.17;17.98;;;;;;;;;;5051314;28;20045;-66
2022/03/24 08:23:18;;;;;;;23.38;15.38;;;;;;;;;;5051571;28;20137;-67
2022/03/24 08:25:44;;;;;;;28.40;17.42;;;;;;;;;;5051509;28;20466;-67
2022/03/24 08:28:12;;;;;;;25.23;16.63;;;;;;;;;;5051697;28;20049;-67
2022/03/24 08:30:40;;;;;;;27.23;16.88;;;;;;;;;;5051716;28;20048;-67
2022/03/24 08:33:10;;;;;;;26.70;16.35;;;;;;;;;;5033623;28;20458;-67
2022/03/24 08:35:38;;;;;;;26.67;16.65;;;;;;;;;;5053082;28;20059;-66
2022/03/24 08:38:04;;;;;;;25.67;16.30;;;;;;;;;;5051545;28;20056;-67
2022/03/24 08:40:31;;;;;;;26.98;16.98;;;;;;;;;;5051028;28;20099;-67
2022/03/24 08:42:58;;;;;;;25.95;16.48;;;;;;;;;;5051210;28;20466;-67
2022/03/24 08:45:25;;;;;;;26.90;18.27;;;;;;;;;;5051309;28;20102;-67
2022/03/24 08:47:53;;;;;;;32.60;18.27;;;;;;;;;;5051308;28;20599;-67
2022/03/24 08:50:20;;;;;;;23.65;16.48;;;;;;;;;;5050038;28;20091;-67
2022/03/24 08:52:47;;;;;;;26.40;17.52;;;;;;;;;;5050948;28;20492;-67
2022/03/24 08:55:14;;;;;;;25.65;17.52;;;;;;;;;;5054226;28;20053;-67
2022/03/24 08:57:42;;;;;;;24.23;17.33;;;;;;;;;;5054995;28;20500;-67
2022/03/24 09:00:13;;;;;;;27.27;17.58;;;;;;;;;;5054491;28;20045;-67
2022/03/24 09:02:41;;;;;;;35.53;17.98;;;;;;;;;;5054700;28;20053;-67
2022/03/24 09:05:08;;;;;;;27.27;17.83;;;;;;;;;;5055066;28;20053;-67
2022/03/24 09:07:35;;;;;;;28.92;17.42;;;;;;;;;;5055259;28;20052;-67
2022/03/24 09:10:05;;;;;;;26.90;16.05;;;;;;;;;;5055021;28;20045;-67
2022/03/24 09:12:32;;;;;;;29.30;17.55;;;;;;;;;;5053741;28;20118;-67
2022/03/24 09:14:58;;;;;;;27.10;17.33;;;;;;;;;;5054603;28;20495;-67
2022/03/24 09:17:25;;;;;;;28.05;17.48;;;;;;;;;;5054615;28;20467;-67
2022/03/24 09:19:52;;;;;;;27.08;17.58;;;;;;;;;;5054198;28;20103;-67
2022/03/24 09:22:19;;;;;;;30.23;18.40;;;;;;;;;;5054289;28;20049;-67
2022/03/24 09:24:45;;;;;;;35.58;19.38;;;;;;;;;;5054294;28;20478;-67
2022/03/24 09:27:12;;;;;;;33.55;19.15;;;;;;;;;;5054688;28;20099;-67
2022/03/24 09:29:38;;;;;;;29.60;18.13;;;;;;;;;;5054751;28;20080;-67
2022/03/24 09:32:09;;;;;;;27.33;17.92;;;;;;;;;;5054033;28;20492;-67
2022/03/24 09:34:35;;;;;;;29.48;19.52;;;;;;;;;;5053701;28;20053;-67
2022/03/24 09:37:02;;;;;;;29.08;19.08;;;;;;;;;;5054365;28;20103;-67
2022/03/24 09:39:29;;;;;;;27.92;18.52;;;;;;;;;;5054005;28;20219;-67
2022/03/24 09:41:55;;;;;;;29.73;19.67;;;;;;;;;;5054142;28;20102;-67
2022/03/24 09:44:22;;;;;;;31.95;19.90;;;;;;;;;;5052923;28;20099;-66
2022/03/24 09:46:49;;;;;;;27.95;18.20;;;;;;;;;;5052624;28;20465;-67
2022/03/24 09:49:15;;;;;;;27.00;19.35;;;;;;;;;;5053870;28;20051;-67
2022/03/24 09:51:43;;;;;;;24.80;17.83;;;;;;;;;;5053616;28;20491;-67
2022/03/24 09:54:11;;;;;;;25.75;17.67;;;;;;;;;;5053856;28;20105;-67
2022/03/24 09:56:39;;;;;;;29.33;19.52;;;;;;;;;;5053748;28;20056;-67
2022/03/24 09:59:07;;;;;;;34.03;20.83;;;;;;;;;;5053599;28;20041;-67
2022/03/24 10:01:33;;;;;;;26.40;19.13;;;;;;;;;;5054038;28;20106;-65
2022/03/24 10:04:10;;;;;;;25.88;19.00;;;;;;;;;;5053544;28;20068;-65
2022/03/24 10:06:39;;;;;;;28.75;19.10;;;;;;;;;;5052694;28;20057;-66
2022/03/24 10:09:06;;;;;;;25.42;17.10;;;;;;;;;;5053350;28;20049;-66
2022/03/24 10:11:35;;;;;;;22.92;17.30;;;;;;;;;;5053312;28;20057;-66
2022/03/24 10:14:02;;;;;;;24.45;16.92;;;;;;;;;;5053496;28;20065;-65
2022/03/24 10:16:41;;;;;;;24.65;17.30;;;;;;;;;;5053597;28;20049;-66
2022/03/24 10:19:16;;;;;;;26.35;17.38;;;;;;;;;;5053397;28;20053;-65
2022/03/24 10:21:46;;;;;;;24.02;17.63;;;;;;;;;;5053261;28;20136;-66
2022/03/24 10:24:16;;;;;;;25.85;17.23;;;;;;;;;;5053586;28;20049;-66
2022/03/24 10:27:00;;;;;;;21.60;17.15;;;;;;;;;;5053713;28;20462;-66
2022/03/24 10:29:28;;;;;;;22.65;15.57;;;;;;;;;;5053093;28;20507;-65
2022/03/24 10:31:57;;;;;;;22.65;15.98;;;;;;;;;;5052701;28;20048;-66
2022/03/24 10:34:40;;;;;;;21.52;14.80;;;;;;;;;;5052535;28;20049;-66
2022/03/24 10:37:17;;;;;;;23.85;16.65;;;;;;;;;;5053190;28;20106;-66
2022/03/24 10:40:02;;;;;;;19.77;15.60;;;;;;;;;;5053014;28;20466;-66
2022/03/24 10:42:30;;;;;;;21.63;15.50;;;;;;;;;;5052854;28;20041;-66
2022/03/24 10:45:20;;;;;;;26.00;17.70;;;;;;;;;;5052867;28;20053;-66
2022/03/24 10:48:12;;;;;;;22.73;15.82;;;;;;;;;;5053126;28;20053;-65
2022/03/24 10:50:40;;;;;;;21.80;15.90;;;;;;;;;;5049846;28;20102;-66
2022/03/24 10:53:09;;;;;;;25.25;16.55;;;;;;;;;;5052502;28;20515;-66
2022/03/24 10:55:36;;;;;;;22.73;15.60;;;;;;;;;;5052508;28;20053;-66
2022/03/24 10:58:03;;;;;;;22.23;15.35;;;;;;;;;;5052591;28;20107;-66
2022/03/24 11:00:30;;;;;;;26.55;15.57;;;;;;;;;;5052350;28;20048;-66
2022/03/24 11:02:57;;;;;;;24.10;15.15;;;;;;;;;;5052472;28;20056;-66
2022/03/24 11:05:24;;;;;;;19.65;13.85;;;;;;;;;;5052529;28;20423;-65
2022/03/24 11:07:55;;;;;;;18.70;14.35;;;;;;;;;;5051188;28;20044;-66
2022/03/24 11:10:22;;;;;;;18.42;13.80;;;;;;;;;;5052243;28;20503;-66
2022/03/24 11:12:54;;;;;;;17.50;12.85;;;;;;;;;;5052275;28;20049;-66
2022/03/24 11:15:22;;;;;;;18.30;13.57;;;;;;;;;;5052293;28;20053;-66
2022/03/24 11:17:49;;;;;;;16.05;12.05;;;;;;;;;;5052092;28;20057;-66
2022/03/24 11:20:29;;;;;;;18.25;13.10;;;;;;;;;;5051955;28;20045;-66
2022/03/24 11:23:01;;;;;;;19.50;14.02;;;;;;;;;;5051825;28;20049;-66
2022/03/24 11:25:28;;;;;;;19.95;14.82;;;;;;;;;;5052387;28;20107;-66
2022/03/24 11:27:55;;;;;;;20.30;14.80;;;;;;;;;;5052186;28;20115;-66
2022/03/24 11:30:24;;;;;;;17.98;13.45;;;;;;;;;;5051976;28;20090;-66
2022/03/24 11:32:54;;;;;;;18.85;12.90;;;;;;;;;;5051657;28;20102;-66
2022/03/24 11:35:22;;;;;;;16.13;13.45;;;;;;;;;;5051324;28;20056;-65
2022/03/24 11:37:55;;;;;;;17.77;14.27;;;;;;;;;;5051821;28;20049;-66
2022/03/24 11:40:26;;;;;;;18.40;12.35;;;;;;;;;;5034307;28;20063;-66
2022/03/24 11:42:53;;;;;;;15.10;13.13;;;;;;;;;;5051731;28;20053;-65
2022/03/24 11:45:26;;;;;;;22.90;13.43;;;;;;;;;;5051719;28;20049;-65
2022/03/24 11:47:54;;;;;;;;;;;;;;;;;;5050951;28;20052;-66
2022/03/24 11:50:41;;;;;;;18.95;12.35;;;;;;;;;;5051506;28;19921;-65
2022/03/24 11:53:17;;;;;;;14.00;11.20;;;;;;;;;;5051664;28;20052;-65
2022/03/24 11:55:58;;;;;;;12.57;10.43;;;;;;;;;;5051643;28;20045;-66
2022/03/24 11:58:26;;;;;;;15.07;11.07;;;;;;;;;;5051826;28;20110;-66
2022/03/24 12:01:42;;;;;;;18.92;14.20;;;;;;;;;;5051156;28;20477;-66
2022/03/24 12:04:11;;;;;;;16.50;13.07;;;;;;;;;;5051540;28;20053;-66
2022/03/24 12:06:41;;;;;;;19.15;14.32;;;;;;;;;;5051573;28;20474;-66
2022/03/24 12:09:12;;;;;;;21.48;14.68;;;;;;;;;;5051685;28;20083;-65
2022/03/24 12:11:43;;;;;;;19.23;13.75;;;;;;;;;;5051208;28;20549;-66
2022/03/24 12:14:58;;;;;;;17.65;14.90;;;;;;;;;;5051504;28;20045;-66
2022/03/24 12:17:30;;;;;;;18.88;14.95;;;;;;;;;;5049725;28;20071;-66
2022/03/24 12:19:58;;;;;;;19.00;14.50;;;;;;;;;;5051299;28;20045;-65
2022/03/24 12:26:13;;;;;;;16.85;13.75;;;;;;;;;;5047991;28;20047;-66
2022/03/24 12:28:42;;;;;;;16.20;13.10;;;;;;;;;;5051948;28;20083;-66
2022/03/24 12:31:11;;;;;;;17.35;13.65;;;;;;;;;;5054987;28;20375;-66
2022/03/24 12:33:40;;;;;;;16.73;13.93;;;;;;;;;;5053398;28;20136;-66
2022/03/24 12:36:13;;;;;;;16.52;12.50;;;;;;;;;;5055177;28;20076;-66
2022/03/24 12:38:45;;;;;;;;;;;;;;;;;;5055770;28;20068;-66
2022/03/24 12:41:13;;;;;;;12.85;11.45;;;;;;;;;;5054850;28;19920;-66
2022/03/24 12:43:49;;;;;;;16.65;11.23;;;;;;;;;;5055022;28;20392;-66
2022/03/24 12:46:18;;;;;;;16.08;12.07;;;;;;;;;;5055290;28;20052;-66
2022/03/24 12:48:45;;;;;;;15.07;12.52;;;;;;;;;;5055243;28;20114;-66
2022/03/24 12:51:22;;;;;;;14.20;11.38;;;;;;;;;;5055016;28;20045;-66
2022/03/24 12:54:03;;;;;;;13.07;11.63;;;;;;;;;;5055094;28;20049;-66
2022/03/24 12:56:33;;;;;;;15.15;12.05;;;;;;;;;;5054718;28;20099;-66
2022/03/24 12:59:04;;;;;;;13.88;11.77;;;;;;;;;;5054835;28;20044;-66
2022/03/24 13:01:33;;;;;;;13.98;11.55;;;;;;;;;;5054340;28;20062;-66
2022/03/24 13:04:01;;;;;;;17.38;13.50;;;;;;;;;;5055128;28;20056;-66
2022/03/24 13:06:28;;;;;;;19.27;13.88;;;;;;;;;;5054599;28;20057;-66
2022/03/24 13:09:18;;;;;;;16.77;13.30;;;;;;;;;;5054630;28;20056;-66
2022/03/24 13:11:57;;;;;;;13.40;12.10;;;;;;;;;;5054677;28;20053;-66
2022/03/24 13:14:25;;;;;;;15.45;12.38;;;;;;;;;;5054736;28;20052;-66
2022/03/24 13:17:13;;;;;;;14.07;12.57;;;;;;;;;;5054559;28;20052;-66
2022/03/24 13:19:41;;;;;;;13.95;11.48;;;;;;;;;;5054321;28;20051;-67
2022/03/24 13:22:19;;;;;;;15.45;13.85;;;;;;;;;;5054666;28;20453;-66
2022/03/24 13:24:59;;;;;;;14.27;12.15;;;;;;;;;;5054456;28;20049;-67
2022/03/24 13:27:27;;;;;;;15.63;14.00;;;;;;;;;;5054237;28;20495;-66
2022/03/24 13:29:53;;;;;;;14.55;12.15;;;;;;;;;;5054659;28;20052;-66
2022/03/24 13:32:26;;;;;;;14.25;12.30;;;;;;;;;;5053996;28;20106;-66
2022/03/24 13:34:58;;;;;;;14.82;12.73;;;;;;;;;;5052655;28;20053;-66
2022/03/24 13:37:25;;;;;;;16.00;12.65;;;;;;;;;;5054036;28;20488;-66
2022/03/24 13:39:54;;;;;;;15.07;11.63;;;;;;;;;;5051957;28;20045;-66
2022/03/24 13:42:22;;;;;;;15.68;12.48;;;;;;;;;;5053374;28;20068;-66
2022/03/24 13:44:51;;;;;;;15.98;14.10;;;;;;;;;;5053917;28;20554;-66
2022/03/24 13:47:23;;;;;;;13.25;11.50;;;;;;;;;;5053875;28;20561;-66
2022/03/24 13:49:57;;;;;;;14.30;11.95;;;;;;;;;;5053867;28;20045;-66
2022/03/24 13:52:32;;;;;;;15.70;13.45;;;;;;;;;;5053663;28;20107;-66
2022/03/24 13:55:03;;;;;;;12.50;11.20;;;;;;;;;;5053854;28;20114;-66
2022/03/24 13:57:31;;;;;;;13.45;11.98;;;;;;;;;;5053878;28;20049;-66
2022/03/24 13:59:58;;;;;;;13.88;12.07;;;;;;;;;;5053519;28;20450;-66
2022/03/24 14:02:27;;;;;;;13.10;11.80;;;;;;;;;;5053393;28;20049;-66
2022/03/24 14:05:04;;;;;;;13.32;11.85;;;;;;;;;;5053645;28;20071;-66
2022/03/24 14:07:32;;;;;;;15.52;11.88;;;;;;;;;;5053771;28;20136;-66
2022/03/24 14:09:59;;;;;;;13.95;12.48;;;;;;;;;;5053621;28;20133;-66
2022/03/24 14:12:27;;;;;;;16.15;12.40;;;;;;;;;;5053293;28;20045;-66
2022/03/24 14:14:54;;;;;;;13.95;12.50;;;;;;;;;;5053557;28;20396;-67
2022/03/24 14:17:25;;;;;;;15.68;12.95;;;;;;;;;;5052203;28;20049;-66
2022/03/24 14:19:56;;;;;;;14.15;12.75;;;;;;;;;;5053099;28;20503;-66
2022/03/24 14:22:24;;;;;;;14.63;13.02;;;;;;;;;;5053159;28;20052;-66
2022/03/24 14:24:52;;;;;;;14.68;12.60;;;;;;;;;;5053481;28;20053;-66
2022/03/24 14:27:25;;;;;;;18.45;12.93;;;;;;;;;;5053174;28;20566;-66
2022/03/24 14:30:07;;;;;;;18.40;13.13;;;;;;;;;;5053240;28;20056;-66
2022/03/24 14:32:35;;;;;;;12.60;11.30;;;;;;;;;;5053039;28;20102;-66
2022/03/24 14:35:11;;;;;;;14.27;11.63;;;;;;;;;;5052647;28;20045;-67
2022/03/24 14:37:50;;;;;;;13.90;12.18;;;;;;;;;;5052064;28;20214;-66
2022/03/24 14:40:34;;;;;;;14.43;11.82;;;;;;;;;;5053143;28;20041;-66
2022/03/24 14:43:11;;;;;;;14.90;13.32;;;;;;;;;;5052883;28;20549;-66
2022/03/24 14:45:39;;;;;;;15.55;12.30;;;;;;;;;;5052775;28;20463;-66
2022/03/24 14:48:06;;;;;;;12.85;11.45;;;;;;;;;;5052831;28;20055;-66
2022/03/24 14:50:34;;;;;;;13.23;11.82;;;;;;;;;;5052533;28;20496;-67